sensor_id;sensor_type;location;lat;lon;timestamp;P1;durP1;ratioP1;P2;durP2;ratioP2
33527;SDS011;19861;42.868;74.608;2022-11-12T00:00:42;0.00;;;0.00;;
33527;SDS011;19861;42.868;74.608;2022-11-12T00:03:08;1.90;;;1.80;;
33527;SDS011;19861;42.868;74.608;2022-11-12T00:05:35;0.10;;;0.10;;
33527;SDS011;19861;42.868;74.608;2022-11-12T00:08:02;1.40;;;0.73;;
33527;SDS011;19861;42.868;74.608;2022-11-12T00:10:28;0.30;;;0.30;;
33527;SDS011;19861;42.868;74.608;2022-11-12T00:12:55;5.00;;;3.00;;
33527;SDS011;19861;42.868;74.608;2022-11-12T00:15:22;0.00;;;0.00;;
33527;SDS011;19861;42.868;74.608;2022-11-12T00:17:48;0.33;;;0.33;;
33527;SDS011;19861;42.868;74.608;2022-11-12T00:20:15;1.90;;;1.90;;
33527;SDS011;19861;42.868;74.608;2022-11-12T00:22:41;0.00;;;0.00;;
33527;SDS011;19861;42.868;74.608;2022-11-12T00:25:08;0.00;;;0.00;;
33527;SDS011;19861;42.868;74.608;2022-11-12T00:27:34;0.00;;;0.00;;
33527;SDS011;19861;42.868;74.608;2022-11-12T00:30:01;0.00;;;0.00;;
33527;SDS011;19861;42.868;74.608;2022-11-12T00:32:27;0.00;;;0.00;;
33527;SDS011;19861;42.868;74.608;2022-11-12T00:34:53;0.00;;;0.00;;
33527;SDS011;19861;42.868;74.608;2022-11-12T00:37:19;0.00;;;0.00;;
33527;SDS011;19861;42.868;74.608;2022-11-12T00:39:47;0.00;;;0.00;;
33527;SDS011;19861;42.868;74.608;2022-11-12T00:42:13;2.93;;;2.83;;
33527;SDS011;19861;42.868;74.608;2022-11-12T00:44:40;4.37;;;4.00;;
33527;SDS011;19861;42.868;74.608;2022-11-12T00:47:09;7.70;;;5.03;;
33527;SDS011;19861;42.868;74.608;2022-11-12T00:49:36;0.10;;;0.10;;
33527;SDS011;19861;42.868;74.608;2022-11-12T00:52:02;0.17;;;0.17;;
33527;SDS011;19861;42.868;74.608;2022-11-12T00:54:29;0.13;;;0.13;;
33527;SDS011;19861;42.868;74.608;2022-11-12T00:56:55;0.00;;;0.00;;
33527;SDS011;19861;42.868;74.608;2022-11-12T00:59:21;1.03;;;0.93;;
33527;SDS011;19861;42.868;74.608;2022-11-12T01:01:48;0.10;;;0.10;;
33527;SDS011;19861;42.868;74.608;2022-11-12T01:04:14;0.00;;;0.00;;
33527;SDS011;19861;42.868;74.608;2022-11-12T01:06:41;0.00;;;0.00;;
33527;SDS011;19861;42.868;74.608;2022-11-12T01:09:07;0.13;;;0.13;;
33527;SDS011;19861;42.868;74.608;2022-11-12T01:11:34;0.00;;;0.00;;
33527;SDS011;19861;42.868;74.608;2022-11-12T01:14:02;0.03;;;0.03;;
33527;SDS011;19861;42.868;74.608;2022-11-12T01:16:30;0.00;;;0.00;;
33527;SDS011;19861;42.868;74.608;2022-11-12T01:18:58;0.07;;;0.07;;
33527;SDS011;19861;42.868;74.608;2022-11-12T01:21:25;0.00;;;0.00;;
33527;SDS011;19861;42.868;74.608;2022-11-12T01:23:52;0.00;;;0.00;;
33527;SDS011;19861;42.868;74.608;2022-11-12T01:26:20;0.00;;;0.00;;
33527;SDS011;19861;42.868;74.608;2022-11-12T01:28:47;0.00;;;0.00;;
33527;SDS011;19861;42.868;74.608;2022-11-12T01:31:18;0.60;;;0.60;;
33527;SDS011;19861;42.868;74.608;2022-11-12T01:33:45;0.00;;;0.00;;
33527;SDS011;19861;42.868;74.608;2022-11-12T01:36:13;0.10;;;0.10;;
33527;SDS011;19861;42.868;74.608;2022-11-12T01:38:40;0.00;;;0.00;;
33527;SDS011;19861;42.868;74.608;2022-11-12T01:41:07;0.73;;;0.57;;
33527;SDS011;19861;42.868;74.608;2022-11-12T01:43:34;3.70;;;2.73;;
33527;SDS011;19861;42.868;74.608;2022-11-12T01:46:01;2.83;;;2.70;;
33527;SDS011;19861;42.868;74.608;2022-11-12T01:48:32;0.00;;;0.00;;
33527;SDS011;19861;42.868;74.608;2022-11-12T01:51:00;25.37;;;23.97;;
33527;SDS011;19861;42.868;74.608;2022-11-12T01:53:28;0.00;;;0.00;;
33527;SDS011;19861;42.868;74.608;2022-11-12T01:55:56;0.00;;;0.00;;
33527;SDS011;19861;42.868;74.608;2022-11-12T01:58:24;1.03;;;1.03;;
33527;SDS011;19861;42.868;74.608;2022-11-12T02:00:52;7.00;;;6.70;;
33527;SDS011;19861;42.868;74.608;2022-11-12T02:03:20;4.50;;;3.30;;
33527;SDS011;19861;42.868;74.608;2022-11-12T02:05:56;0.97;;;0.97;;
33527;SDS011;19861;42.868;74.608;2022-11-12T02:08:23;0.63;;;0.60;;
33527;SDS011;19861;42.868;74.608;2022-11-12T02:10:50;8.23;;;7.53;;
33527;SDS011;19861;42.868;74.608;2022-11-12T02:13:17;0.00;;;0.00;;
33527;SDS011;19861;42.868;74.608;2022-11-12T02:16:03;1.43;;;1.43;;
33527;SDS011;19861;42.868;74.608;2022-11-12T02:18:29;4.77;;;4.40;;
33527;SDS011;19861;42.868;74.608;2022-11-12T02:20:57;4.83;;;4.43;;
33527;SDS011;19861;42.868;74.608;2022-11-12T02:23:24;7.57;;;6.60;;
33527;SDS011;19861;42.868;74.608;2022-11-12T02:25:50;15.10;;;13.60;;
33527;SDS011;19861;42.868;74.608;2022-11-12T02:28:16;4.90;;;4.60;;
33527;SDS011;19861;42.868;74.608;2022-11-12T02:30:44;0.00;;;0.00;;
33527;SDS011;19861;42.868;74.608;2022-11-12T02:33:11;5.97;;;5.77;;
33527;SDS011;19861;42.868;74.608;2022-11-12T02:35:37;0.10;;;0.10;;
33527;SDS011;19861;42.868;74.608;2022-11-12T02:38:03;7.20;;;6.70;;
33527;SDS011;19861;42.868;74.608;2022-11-12T02:40:30;3.10;;;2.87;;
33527;SDS011;19861;42.868;74.608;2022-11-12T02:42:56;2.07;;;1.50;;
33527;SDS011;19861;42.868;74.608;2022-11-12T02:45:23;4.47;;;4.17;;
33527;SDS011;19861;42.868;74.608;2022-11-12T02:47:49;0.37;;;0.37;;
33527;SDS011;19861;42.868;74.608;2022-11-12T02:50:16;2.47;;;2.37;;
33527;SDS011;19861;42.868;74.608;2022-11-12T02:52:42;8.90;;;6.83;;
33527;SDS011;19861;42.868;74.608;2022-11-12T02:55:09;24.40;;;22.10;;
33527;SDS011;19861;42.868;74.608;2022-11-12T02:57:36;6.70;;;6.23;;
33527;SDS011;19861;42.868;74.608;2022-11-12T03:00:07;2.70;;;2.57;;
33527;SDS011;19861;42.868;74.608;2022-11-12T03:02:34;12.47;;;11.90;;
33527;SDS011;19861;42.868;74.608;2022-11-12T03:05:09;3.50;;;3.30;;
33527;SDS011;19861;42.868;74.608;2022-11-12T03:07:36;17.13;;;9.13;;
33527;SDS011;19861;42.868;74.608;2022-11-12T03:10:03;3.03;;;2.93;;
33527;SDS011;19861;42.868;74.608;2022-11-12T03:12:30;9.17;;;8.60;;
33527;SDS011;19861;42.868;74.608;2022-11-12T03:14:57;0.40;;;0.40;;
33527;SDS011;19861;42.868;74.608;2022-11-12T03:17:23;7.90;;;7.43;;
33527;SDS011;19861;42.868;74.608;2022-11-12T03:19:49;2.28;;;2.17;;
33527;SDS011;19861;42.868;74.608;2022-11-12T03:22:16;17.50;;;12.57;;
33527;SDS011;19861;42.868;74.608;2022-11-12T03:24:42;11.87;;;10.23;;
33527;SDS011;19861;42.868;74.608;2022-11-12T03:27:08;3.80;;;3.25;;
33527;SDS011;19861;42.868;74.608;2022-11-12T03:29:34;2.05;;;1.95;;
33527;SDS011;19861;42.868;74.608;2022-11-12T03:32:01;12.10;;;8.53;;
33527;SDS011;19861;42.868;74.608;2022-11-12T03:34:27;0.90;;;0.90;;
33527;SDS011;19861;42.868;74.608;2022-11-12T03:36:53;6.30;;;5.70;;
33527;SDS011;19861;42.868;74.608;2022-11-12T03:39:20;29.85;;;14.38;;
33527;SDS011;19861;42.868;74.608;2022-11-12T03:41:46;5.18;;;3.53;;
33527;SDS011;19861;42.868;74.608;2022-11-12T03:44:12;33.13;;;14.80;;
33527;SDS011;19861;42.868;74.608;2022-11-12T03:46:39;32.50;;;15.60;;
33527;SDS011;19861;42.868;74.608;2022-11-12T03:49:05;9.02;;;8.13;;
33527;SDS011;19861;42.868;74.608;2022-11-12T03:51:31;27.10;;;21.60;;
33527;SDS011;19861;42.868;74.608;2022-11-12T03:53:57;33.50;;;18.70;;
33527;SDS011;19861;42.868;74.608;2022-11-12T03:56:24;35.25;;;20.95;;
33527;SDS011;19861;42.868;74.608;2022-11-12T03:58:50;21.23;;;12.45;;
33527;SDS011;19861;42.868;74.608;2022-11-12T04:01:16;33.95;;;17.15;;
33527;SDS011;19861;42.868;74.608;2022-11-12T04:03:43;10.93;;;6.28;;
33527;SDS011;19861;42.868;74.608;2022-11-12T04:06:09;11.02;;;9.55;;
33527;SDS011;19861;42.868;74.608;2022-11-12T04:08:54;48.47;;;26.15;;
33527;SDS011;19861;42.868;74.608;2022-11-12T04:11:20;33.67;;;25.17;;
33527;SDS011;19861;42.868;74.608;2022-11-12T04:13:46;77.30;;;41.40;;
33527;SDS011;19861;42.868;74.608;2022-11-12T04:18:58;11.23;;;8.20;;
33527;SDS011;19861;42.868;74.608;2022-11-12T04:21:44;16.17;;;14.77;;
33527;SDS011;19861;42.868;74.608;2022-11-12T04:24:29;17.30;;;11.38;;
33527;SDS011;19861;42.868;74.608;2022-11-12T04:27:14;58.10;;;23.83;;
33527;SDS011;19861;42.868;74.608;2022-11-12T04:29:42;23.38;;;18.67;;
33527;SDS011;19861;42.868;74.608;2022-11-12T04:32:27;18.67;;;10.38;;
33527;SDS011;19861;42.868;74.608;2022-11-12T04:34:54;27.60;;;17.63;;
33527;SDS011;19861;42.868;74.608;2022-11-12T04:37:21;16.63;;;8.68;;
33527;SDS011;19861;42.868;74.608;2022-11-12T04:39:47;6.45;;;5.85;;
33527;SDS011;19861;42.868;74.608;2022-11-12T04:42:14;2.85;;;2.75;;
33527;SDS011;19861;42.868;74.608;2022-11-12T04:45:12;52.78;;;23.67;;
33527;SDS011;19861;42.868;74.608;2022-11-12T04:47:39;27.70;;;20.98;;
33527;SDS011;19861;42.868;74.608;2022-11-12T04:50:12;22.23;;;13.55;;
33527;SDS011;19861;42.868;74.608;2022-11-12T04:52:39;14.13;;;13.23;;
33527;SDS011;19861;42.868;74.608;2022-11-12T04:55:06;53.78;;;31.63;;
33527;SDS011;19861;42.868;74.608;2022-11-12T04:57:32;12.98;;;10.98;;
33527;SDS011;19861;42.868;74.608;2022-11-12T04:59:59;32.17;;;21.40;;
33527;SDS011;19861;42.868;74.608;2022-11-12T05:02:25;17.13;;;10.45;;
33527;SDS011;19861;42.868;74.608;2022-11-12T05:04:51;16.15;;;13.60;;
33527;SDS011;19861;42.868;74.608;2022-11-12T05:07:18;25.05;;;22.77;;
33527;SDS011;19861;42.868;74.608;2022-11-12T05:09:44;4.57;;;4.35;;
33527;SDS011;19861;42.868;74.608;2022-11-12T05:12:10;65.38;;;29.83;;
33527;SDS011;19861;42.868;74.608;2022-11-12T05:14:37;16.17;;;15.13;;
33527;SDS011;19861;42.868;74.608;2022-11-12T05:17:03;20.55;;;8.50;;
33527;SDS011;19861;42.868;74.608;2022-11-12T05:19:30;25.17;;;13.98;;
33527;SDS011;19861;42.868;74.608;2022-11-12T05:21:57;26.15;;;20.33;;
33527;SDS011;19861;42.868;74.608;2022-11-12T05:24:33;32.50;;;21.52;;
33527;SDS011;19861;42.868;74.608;2022-11-12T05:27:00;5.03;;;4.60;;
33527;SDS011;19861;42.868;74.608;2022-11-12T05:29:26;7.72;;;7.15;;
33527;SDS011;19861;42.868;74.608;2022-11-12T05:31:53;98.70;;;46.83;;
33527;SDS011;19861;42.868;74.608;2022-11-12T05:34:20;48.25;;;34.10;;
33527;SDS011;19861;42.868;74.608;2022-11-12T05:36:46;10.80;;;9.82;;
33527;SDS011;19861;42.868;74.608;2022-11-12T05:39:13;12.52;;;10.07;;
33527;SDS011;19861;42.868;74.608;2022-11-12T05:41:39;11.48;;;10.77;;
33527;SDS011;19861;42.868;74.608;2022-11-12T05:44:05;13.40;;;10.43;;
33527;SDS011;19861;42.868;74.608;2022-11-12T05:46:32;23.48;;;14.02;;
33527;SDS011;19861;42.868;74.608;2022-11-12T05:48:58;8.48;;;7.45;;
33527;SDS011;19861;42.868;74.608;2022-11-12T05:51:24;15.45;;;12.00;;
33527;SDS011;19861;42.868;74.608;2022-11-12T05:53:50;37.35;;;19.67;;
33527;SDS011;19861;42.868;74.608;2022-11-12T05:56:17;7.57;;;7.13;;
33527;SDS011;19861;42.868;74.608;2022-11-12T05:58:43;37.65;;;27.45;;
33527;SDS011;19861;42.868;74.608;2022-11-12T06:01:09;8.77;;;8.10;;
33527;SDS011;19861;42.868;74.608;2022-11-12T06:03:36;32.05;;;23.98;;
33527;SDS011;19861;42.868;74.608;2022-11-12T06:06:02;20.10;;;14.15;;
33527;SDS011;19861;42.868;74.608;2022-11-12T06:08:29;12.77;;;11.55;;
33527;SDS011;19861;42.868;74.608;2022-11-12T06:10:55;21.02;;;19.08;;
33527;SDS011;19861;42.868;74.608;2022-11-12T06:13:22;16.50;;;8.90;;
33527;SDS011;19861;42.868;74.608;2022-11-12T06:15:49;6.10;;;5.78;;
33527;SDS011;19861;42.868;74.608;2022-11-12T06:18:15;8.98;;;7.80;;
33527;SDS011;19861;42.868;74.608;2022-11-12T06:20:41;71.18;;;32.33;;
33527;SDS011;19861;42.868;74.608;2022-11-12T06:23:08;16.38;;;11.63;;
33527;SDS011;19861;42.868;74.608;2022-11-12T06:25:34;18.85;;;17.58;;
33527;SDS011;19861;42.868;74.608;2022-11-12T06:28:00;33.80;;;16.85;;
33527;SDS011;19861;42.868;74.608;2022-11-12T06:30:27;12.95;;;7.15;;
33527;SDS011;19861;42.868;74.608;2022-11-12T06:32:53;7.38;;;6.88;;
33527;SDS011;19861;42.868;74.608;2022-11-12T06:35:19;16.63;;;8.57;;
33527;SDS011;19861;42.868;74.608;2022-11-12T06:37:45;38.38;;;14.60;;
33527;SDS011;19861;42.868;74.608;2022-11-12T06:40:12;8.02;;;7.10;;
33527;SDS011;19861;42.868;74.608;2022-11-12T06:42:39;22.27;;;12.88;;
33527;SDS011;19861;42.868;74.608;2022-11-12T06:45:05;20.63;;;11.70;;
33527;SDS011;19861;42.868;74.608;2022-11-12T07:14:44;13.57;;;8.98;;
33527;SDS011;19861;42.868;74.608;2022-11-12T07:17:11;9.13;;;8.38;;
33527;SDS011;19861;42.868;74.608;2022-11-12T07:19:37;13.13;;;11.82;;
33527;SDS011;19861;42.868;74.608;2022-11-12T07:22:03;11.63;;;9.18;;
33527;SDS011;19861;42.868;74.608;2022-11-12T07:24:29;4.97;;;4.63;;
33527;SDS011;19861;42.868;74.608;2022-11-12T07:26:56;14.25;;;6.55;;
33527;SDS011;19861;42.868;74.608;2022-11-12T07:29:22;6.75;;;6.20;;
33527;SDS011;19861;42.868;74.608;2022-11-12T07:31:48;25.40;;;20.10;;
33527;SDS011;19861;42.868;74.608;2022-11-12T07:34:15;39.05;;;16.33;;
33527;SDS011;19861;42.868;74.608;2022-11-12T07:36:42;18.63;;;11.57;;
33527;SDS011;19861;42.868;74.608;2022-11-12T07:39:08;37.13;;;23.55;;
33527;SDS011;19861;42.868;74.608;2022-11-12T07:41:34;14.27;;;10.35;;
33527;SDS011;19861;42.868;74.608;2022-11-12T07:44:01;65.22;;;28.95;;
33527;SDS011;19861;42.868;74.608;2022-11-12T07:46:27;17.20;;;10.13;;
33527;SDS011;19861;42.868;74.608;2022-11-12T07:48:53;17.98;;;14.02;;
33527;SDS011;19861;42.868;74.608;2022-11-12T07:51:21;47.08;;;22.35;;
33527;SDS011;19861;42.868;74.608;2022-11-12T07:53:48;19.88;;;13.43;;
33527;SDS011;19861;42.868;74.608;2022-11-12T07:56:15;7.88;;;5.65;;
33527;SDS011;19861;42.868;74.608;2022-11-12T07:58:42;16.65;;;8.20;;
33527;SDS011;19861;42.868;74.608;2022-11-12T08:01:31;16.15;;;10.25;;
33527;SDS011;19861;42.868;74.608;2022-11-12T08:03:56;1.92;;;1.83;;
33527;SDS011;19861;42.868;74.608;2022-11-12T08:06:23;48.40;;;20.77;;
33527;SDS011;19861;42.868;74.608;2022-11-12T08:08:56;14.48;;;13.13;;
33527;SDS011;19861;42.868;74.608;2022-11-12T08:11:23;18.80;;;16.95;;
33527;SDS011;19861;42.868;74.608;2022-11-12T08:13:49;8.75;;;4.28;;
33527;SDS011;19861;42.868;74.608;2022-11-12T08:16:16;7.70;;;6.28;;
33527;SDS011;19861;42.868;74.608;2022-11-12T08:18:43;5.53;;;3.40;;
33527;SDS011;19861;42.868;74.608;2022-11-12T08:21:11;8.35;;;1.83;;
33527;SDS011;19861;42.868;74.608;2022-11-12T08:23:37;15.35;;;4.35;;
33527;SDS011;19861;42.868;74.608;2022-11-12T08:26:05;3.95;;;3.60;;
33527;SDS011;19861;42.868;74.608;2022-11-12T08:28:31;8.98;;;8.13;;
33527;SDS011;19861;42.868;74.608;2022-11-12T08:31:02;9.18;;;8.23;;
33527;SDS011;19861;42.868;74.608;2022-11-12T08:33:29;10.15;;;8.70;;
33527;SDS011;19861;42.868;74.608;2022-11-12T08:35:56;10.57;;;9.95;;
33527;SDS011;19861;42.868;74.608;2022-11-12T08:38:22;1.27;;;1.27;;
33527;SDS011;19861;42.868;74.608;2022-11-12T08:40:48;14.02;;;12.73;;
33527;SDS011;19861;42.868;74.608;2022-11-12T08:43:15;3.83;;;3.45;;
33527;SDS011;19861;42.868;74.608;2022-11-12T08:45:41;14.15;;;10.48;;
33527;SDS011;19861;42.868;74.608;2022-11-12T08:48:08;19.25;;;12.73;;
33527;SDS011;19861;42.868;74.608;2022-11-12T08:50:35;3.55;;;3.33;;
33527;SDS011;19861;42.868;74.608;2022-11-12T08:53:03;13.05;;;6.53;;
33527;SDS011;19861;42.868;74.608;2022-11-12T08:55:30;15.07;;;7.82;;
33527;SDS011;19861;42.868;74.608;2022-11-12T08:57:57;18.08;;;14.88;;
33527;SDS011;19861;42.868;74.608;2022-11-12T09:00:37;7.07;;;5.75;;
33527;SDS011;19861;42.868;74.608;2022-11-12T09:03:04;20.85;;;11.68;;
33527;SDS011;19861;42.868;74.608;2022-11-12T09:05:31;43.00;;;20.42;;
33527;SDS011;19861;42.868;74.608;2022-11-12T09:08:02;54.78;;;24.88;;
33527;SDS011;19861;42.868;74.608;2022-11-12T09:10:28;36.05;;;21.73;;
33527;SDS011;19861;42.868;74.608;2022-11-12T09:12:55;71.47;;;33.65;;
33527;SDS011;19861;42.868;74.608;2022-11-12T09:15:22;12.18;;;7.85;;
33527;SDS011;19861;42.868;74.608;2022-11-12T09:17:55;9.63;;;3.97;;
33527;SDS011;19861;42.868;74.608;2022-11-12T09:20:22;4.95;;;4.28;;
33527;SDS011;19861;42.868;74.608;2022-11-12T09:22:48;28.02;;;14.35;;
33527;SDS011;19861;42.868;74.608;2022-11-12T09:25:15;12.43;;;9.75;;
33527;SDS011;19861;42.868;74.608;2022-11-12T09:27:41;7.25;;;6.72;;
33527;SDS011;19861;42.868;74.608;2022-11-12T09:30:07;16.02;;;14.38;;
33527;SDS011;19861;42.868;74.608;2022-11-12T09:32:34;4.15;;;3.83;;
33527;SDS011;19861;42.868;74.608;2022-11-12T09:35:00;18.88;;;5.53;;
33527;SDS011;19861;42.868;74.608;2022-11-12T09:37:26;13.18;;;11.95;;
33527;SDS011;19861;42.868;74.608;2022-11-12T09:39:53;8.82;;;8.00;;
33527;SDS011;19861;42.868;74.608;2022-11-12T09:42:20;29.40;;;14.70;;
33527;SDS011;19861;42.868;74.608;2022-11-12T09:45:06;38.90;;;22.35;;
33527;SDS011;19861;42.868;74.608;2022-11-12T09:47:40;20.42;;;3.10;;
33527;SDS011;19861;42.868;74.608;2022-11-12T09:53:26;16.25;;;14.80;;
33527;SDS011;19861;42.868;74.608;2022-11-12T09:55:47;9.18;;;8.75;;
33527;SDS011;19861;42.868;74.608;2022-11-12T09:58:14;12.00;;;10.55;;
33527;SDS011;19861;42.868;74.608;2022-11-12T10:00:48;36.30;;;10.00;;
33527;SDS011;19861;42.868;74.608;2022-11-12T10:06:03;21.48;;;16.05;;
33527;SDS011;19861;42.868;74.608;2022-11-12T10:08:46;26.75;;;16.65;;
33527;SDS011;19861;42.868;74.608;2022-11-12T10:11:41;10.95;;;9.98;;
33527;SDS011;19861;42.868;74.608;2022-11-12T10:17:19;15.07;;;10.52;;
33527;SDS011;19861;42.868;74.608;2022-11-12T10:22:30;9.55;;;8.48;;
33527;SDS011;19861;42.868;74.608;2022-11-12T10:25:09;34.20;;;17.30;;
33527;SDS011;19861;42.868;74.608;2022-11-12T10:27:38;8.57;;;8.05;;
33527;SDS011;19861;42.868;74.608;2022-11-12T10:30:05;6.70;;;6.20;;
33527;SDS011;19861;42.868;74.608;2022-11-12T10:32:32;5.07;;;3.60;;
33527;SDS011;19861;42.868;74.608;2022-11-12T10:34:59;34.97;;;10.15;;
33527;SDS011;19861;42.868;74.608;2022-11-12T10:37:35;5.85;;;5.43;;
33527;SDS011;19861;42.868;74.608;2022-11-12T10:40:26;0.68;;;0.68;;
33527;SDS011;19861;42.868;74.608;2022-11-12T10:42:55;15.23;;;7.82;;
33527;SDS011;19861;42.868;74.608;2022-11-12T10:45:22;19.08;;;17.35;;
33527;SDS011;19861;42.868;74.608;2022-11-12T10:47:48;19.67;;;18.40;;
33527;SDS011;19861;42.868;74.608;2022-11-12T10:50:33;24.42;;;14.63;;
33527;SDS011;19861;42.868;74.608;2022-11-12T10:53:01;31.80;;;18.95;;
33527;SDS011;19861;42.868;74.608;2022-11-12T10:55:28;46.95;;;22.70;;
33527;SDS011;19861;42.868;74.608;2022-11-12T10:58:14;3.25;;;3.05;;
33527;SDS011;19861;42.868;74.608;2022-11-12T11:00:53;47.70;;;23.42;;
33527;SDS011;19861;42.868;74.608;2022-11-12T11:03:24;10.32;;;9.27;;
33527;SDS011;19861;42.868;74.608;2022-11-12T11:05:52;19.85;;;18.40;;
33527;SDS011;19861;42.868;74.608;2022-11-12T11:08:32;5.45;;;5.05;;
33527;SDS011;19861;42.868;74.608;2022-11-12T11:13:55;8.55;;;7.38;;
33527;SDS011;19861;42.868;74.608;2022-11-12T11:16:23;17.42;;;9.07;;
33527;SDS011;19861;42.868;74.608;2022-11-12T11:19:03;22.05;;;14.05;;
33527;SDS011;19861;42.868;74.608;2022-11-12T11:26:51;7.13;;;6.68;;
33527;SDS011;19861;42.868;74.608;2022-11-12T11:32:39;48.60;;;10.00;;
33527;SDS011;19861;42.868;74.608;2022-11-12T11:37:30;8.60;;;5.45;;
33527;SDS011;19861;42.868;74.608;2022-11-12T11:40:04;1.20;;;1.20;;
33527;SDS011;19861;42.868;74.608;2022-11-12T11:42:47;12.20;;;11.30;;
33527;SDS011;19861;42.868;74.608;2022-11-12T11:45:17;10.98;;;9.88;;
33527;SDS011;19861;42.868;74.608;2022-11-12T11:48:08;8.60;;;7.97;;
33527;SDS011;19861;42.868;74.608;2022-11-12T11:50:41;15.40;;;11.93;;
33527;SDS011;19861;42.868;74.608;2022-11-12T12:05:58;4.13;;;3.97;;
33527;SDS011;19861;42.868;74.608;2022-11-12T12:08:35;16.58;;;13.50;;
33527;SDS011;19861;42.868;74.608;2022-11-12T12:11:05;7.72;;;6.75;;
33527;SDS011;19861;42.868;74.608;2022-11-12T12:21:29;9.57;;;8.65;;
33527;SDS011;19861;42.868;74.608;2022-11-12T12:24:40;8.77;;;8.20;;
33527;SDS011;19861;42.868;74.608;2022-11-12T12:26:51;8.25;;;7.85;;
33527;SDS011;19861;42.868;74.608;2022-11-12T12:31:50;10.43;;;9.23;;
33527;SDS011;19861;42.868;74.608;2022-11-12T12:34:19;9.05;;;6.63;;
33527;SDS011;19861;42.868;74.608;2022-11-12T12:36:49;2.90;;;2.65;;
33527;SDS011;19861;42.868;74.608;2022-11-12T12:39:17;7.35;;;6.97;;
33527;SDS011;19861;42.868;74.608;2022-11-12T12:44:10;14.15;;;9.75;;
33527;SDS011;19861;42.868;74.608;2022-11-12T12:46:38;5.05;;;4.57;;
33527;SDS011;19861;42.868;74.608;2022-11-12T12:49:05;8.57;;;8.18;;
33527;SDS011;19861;42.868;74.608;2022-11-12T12:51:32;0.10;;;0.10;;
33527;SDS011;19861;42.868;74.608;2022-11-12T12:53:59;2.80;;;2.70;;
33527;SDS011;19861;42.868;74.608;2022-11-12T12:58:58;7.55;;;7.18;;
33527;SDS011;19861;42.868;74.608;2022-11-12T13:01:29;8.48;;;8.15;;
33527;SDS011;19861;42.868;74.608;2022-11-12T13:04:02;78.10;;;33.63;;
33527;SDS011;19861;42.868;74.608;2022-11-12T13:09:00;121.78;;;55.75;;
33527;SDS011;19861;42.868;74.608;2022-11-12T13:17:01;19.48;;;17.15;;
33527;SDS011;19861;42.868;74.608;2022-11-12T13:43:16;159.88;;;65.72;;
33527;SDS011;19861;42.868;74.608;2022-11-12T13:46:26;295.27;;;115.55;;
33527;SDS011;19861;42.868;74.608;2022-11-12T13:48:40;241.02;;;108.00;;
33527;SDS011;19861;42.868;74.608;2022-11-12T13:53:52;119.18;;;56.72;;
33527;SDS011;19861;42.868;74.608;2022-11-12T13:56:29;197.15;;;90.25;;
33527;SDS011;19861;42.868;74.608;2022-11-12T13:59:15;46.60;;;20.92;;
33527;SDS011;19861;42.868;74.608;2022-11-12T14:01:42;33.47;;;20.60;;
33527;SDS011;19861;42.868;74.608;2022-11-12T14:04:10;38.92;;;27.58;;
33527;SDS011;19861;42.868;74.608;2022-11-12T14:06:37;159.35;;;73.45;;
33527;SDS011;19861;42.868;74.608;2022-11-12T14:09:09;120.60;;;61.22;;
33527;SDS011;19861;42.868;74.608;2022-11-12T14:16:55;129.55;;;64.53;;
33527;SDS011;19861;42.868;74.608;2022-11-12T14:22:09;279.38;;;118.40;;
33527;SDS011;19861;42.868;74.608;2022-11-12T14:24:36;332.40;;;132.77;;
33527;SDS011;19861;42.868;74.608;2022-11-12T14:27:02;233.13;;;100.22;;
33527;SDS011;19861;42.868;74.608;2022-11-12T14:29:28;138.90;;;73.60;;
33527;SDS011;19861;42.868;74.608;2022-11-12T14:32:01;20.40;;;19.27;;
33527;SDS011;19861;42.868;74.608;2022-11-12T14:34:31;12.25;;;8.13;;
33527;SDS011;19861;42.868;74.608;2022-11-12T14:36:59;64.78;;;38.63;;
33527;SDS011;19861;42.868;74.608;2022-11-12T14:39:26;120.22;;;64.03;;
33527;SDS011;19861;42.868;74.608;2022-11-12T14:41:54;194.23;;;83.53;;
33527;SDS011;19861;42.868;74.608;2022-11-12T14:44:42;195.48;;;81.03;;
33527;SDS011;19861;42.868;74.608;2022-11-12T14:47:07;257.17;;;103.10;;
33527;SDS011;19861;42.868;74.608;2022-11-12T14:49:43;190.73;;;85.07;;
33527;SDS011;19861;42.868;74.608;2022-11-12T14:52:17;163.27;;;66.67;;
33527;SDS011;19861;42.868;74.608;2022-11-12T14:54:47;73.03;;;36.27;;
33527;SDS011;19861;42.868;74.608;2022-11-12T14:57:36;59.63;;;33.77;;
33527;SDS011;19861;42.868;74.608;2022-11-12T15:00:15;126.17;;;58.73;;
33527;SDS011;19861;42.868;74.608;2022-11-12T15:02:41;198.07;;;84.93;;
33527;SDS011;19861;42.868;74.608;2022-11-12T15:13:08;10.80;;;9.77;;
33527;SDS011;19861;42.868;74.608;2022-11-12T15:15:39;32.03;;;22.90;;
33527;SDS011;19861;42.868;74.608;2022-11-12T15:18:15;11.80;;;9.43;;
33527;SDS011;19861;42.868;74.608;2022-11-12T15:20:43;11.00;;;9.93;;
33527;SDS011;19861;42.868;74.608;2022-11-12T15:23:15;125.47;;;59.27;;
33527;SDS011;19861;42.868;74.608;2022-11-12T15:25:49;34.00;;;14.17;;
33527;SDS011;19861;42.868;74.608;2022-11-12T15:28:22;70.70;;;35.92;;
33527;SDS011;19861;42.868;74.608;2022-11-12T15:30:59;26.57;;;24.20;;
33527;SDS011;19861;42.868;74.608;2022-11-12T15:33:25;97.47;;;41.37;;
33527;SDS011;19861;42.868;74.608;2022-11-12T15:35:55;34.97;;;26.37;;
33527;SDS011;19861;42.868;74.608;2022-11-12T15:40:53;15.00;;;13.60;;
33527;SDS011;19861;42.868;74.608;2022-11-12T15:43:24;28.90;;;25.03;;
33527;SDS011;19861;42.868;74.608;2022-11-12T15:45:51;11.27;;;9.07;;
33527;SDS011;19861;42.868;74.608;2022-11-12T15:48:18;35.53;;;24.20;;
33527;SDS011;19861;42.868;74.608;2022-11-12T15:50:44;101.30;;;46.77;;
33527;SDS011;19861;42.868;74.608;2022-11-12T15:53:11;100.33;;;46.57;;
33527;SDS011;19861;42.868;74.608;2022-11-12T15:55:37;48.53;;;23.70;;
33527;SDS011;19861;42.868;74.608;2022-11-12T15:58:05;46.23;;;22.60;;
33527;SDS011;19861;42.868;74.608;2022-11-12T16:00:33;31.73;;;18.03;;
33527;SDS011;19861;42.868;74.608;2022-11-12T16:05:26;8.23;;;7.53;;
33527;SDS011;19861;42.868;74.608;2022-11-12T16:07:52;94.97;;;47.23;;
33527;SDS011;19861;42.868;74.608;2022-11-12T16:10:19;60.63;;;36.27;;
33527;SDS011;19861;42.868;74.608;2022-11-12T16:12:45;116.93;;;60.53;;
33527;SDS011;19861;42.868;74.608;2022-11-12T16:15:12;120.30;;;56.47;;
33527;SDS011;19861;42.868;74.608;2022-11-12T16:17:39;28.03;;;13.27;;
33527;SDS011;19861;42.868;74.608;2022-11-12T16:20:38;138.33;;;61.60;;
33527;SDS011;19861;42.868;74.608;2022-11-12T16:22:57;186.37;;;80.83;;
33527;SDS011;19861;42.868;74.608;2022-11-12T16:25:26;88.03;;;34.57;;
33527;SDS011;19861;42.868;74.608;2022-11-12T16:27:54;72.57;;;39.30;;
33527;SDS011;19861;42.868;74.608;2022-11-12T16:30:21;65.73;;;31.50;;
33527;SDS011;19861;42.868;74.608;2022-11-12T16:32:48;127.97;;;54.57;;
33527;SDS011;19861;42.868;74.608;2022-11-12T16:35:14;46.20;;;26.27;;
33527;SDS011;19861;42.868;74.608;2022-11-12T16:37:41;112.43;;;57.50;;
33527;SDS011;19861;42.868;74.608;2022-11-12T16:40:19;8.17;;;7.37;;
33527;SDS011;19861;42.868;74.608;2022-11-12T16:42:45;24.27;;;16.10;;
33527;SDS011;19861;42.868;74.608;2022-11-12T16:45:12;94.00;;;50.63;;
33527;SDS011;19861;42.868;74.608;2022-11-12T16:47:44;107.80;;;54.40;;